Time;durP1;ratioP1;P1;durP2;ratioP2;P2;SDS_P1;SDS_P2;PMS_P1;PMS_P2;Temp;Humidity;BMP_temperature;BMP_pressure;BME280_temperature;BME280_humidity;BME280_pressure;Samples;Min_cycle;Max_cycle;Signal;HPM_P1;HPM_P2
2021/04/11 00:00:39;;;;;;;5.90;3.90;;;;;;;12.31;47.24;96057.72;5035425;28;20140;-79
2021/04/11 00:03:07;;;;;;;8.90;3.58;;;;;;;12.29;47.16;96049.31;5034194;28;20140;-77
2021/04/11 00:05:38;;;;;;;6.22;3.28;;;;;;;12.26;47.20;96060.97;5035104;28;20492;-77
2021/04/11 00:08:06;;;;;;;5.50;3.67;;;;;;;12.25;47.32;96054.16;5034455;28;20054;-78
2021/04/11 00:10:36;;;;;;;6.45;3.47;;;;;;;12.24;47.31;96046.50;5034386;28;20499;-77
2021/04/11 00:13:04;;;;;;;6.13;3.40;;;;;;;12.23;47.32;96042.28;5034192;28;20050;-78
2021/04/11 00:15:32;;;;;;;7.35;4.50;;;;;;;12.22;47.40;96043.28;5034559;28;20079;-78
2021/04/11 00:17:58;;;;;;;5.43;3.10;;;;;;;12.21;47.54;96052.16;5034369;28;20054;-78
2021/04/11 00:20:25;;;;;;;8.77;3.60;;;;;;;12.18;47.53;96036.84;5038283;28;20492;-78
2021/04/11 00:22:53;;;;;;;5.78;3.55;;;;;;;12.17;47.33;96033.44;5041382;28;20065;-76
2021/04/11 00:25:24;;;;;;;5.18;3.33;;;;;;;12.16;47.43;96032.66;5041500;28;20064;-77
2021/04/11 00:27:50;;;;;;;7.07;3.45;;;;;;;12.16;47.35;96026.63;5041606;28;20053;-78
2021/04/11 00:30:19;;;;;;;3.65;3.20;;;;;;;12.15;47.21;96030.22;5041596;28;20049;-76
2021/04/11 00:32:46;;;;;;;10.75;3.95;;;;;;;12.15;47.29;96027.63;5041104;28;20053;-74
2021/04/11 00:35:13;;;;;;;9.98;3.83;;;;;;;12.16;47.41;96029.22;5041076;28;20049;-77
2021/04/11 00:37:40;;;;;;;6.38;3.70;;;;;;;12.18;47.34;96029.84;5040829;28;20045;-76
2021/04/11 00:40:10;;;;;;;4.53;3.70;;;;;;;12.20;47.47;96030.44;5039633;28;20053;-78
2021/04/11 00:46:25;;;;;;;5.18;3.60;;;;;;;12.20;47.77;96024.38;5032134;28;20060;-76
2021/04/11 00:48:52;;;;;;;6.97;3.65;;;;;;;12.18;47.61;96018.53;5040057;28;20049;-75
2021/04/11 00:51:22;;;;;;;5.95;3.40;;;;;;;12.17;47.94;96030.81;5040496;28;20056;-77
2021/04/11 00:53:49;;;;;;;4.72;3.22;;;;;;;12.19;47.98;96026.19;5039823;28;20053;-77
2021/04/11 00:56:17;;;;;;;4.63;3.28;;;;;;;12.21;47.88;96026.78;5040976;28;20053;-77
2021/04/11 00:58:44;;;;;;;6.28;3.35;;;;;;;12.22;47.65;96017.94;5039885;28;20045;-75
2021/04/11 01:01:10;;;;;;;7.90;3.60;;;;;;;12.22;47.75;96024.97;5039606;28;20567;-77
2021/04/11 01:03:39;;;;;;;6.45;3.40;;;;;;;12.24;47.55;96015.91;5039921;28;20065;-77
2021/04/11 01:06:08;;;;;;;6.25;3.38;;;;;;;12.26;47.44;96011.28;5039752;28;20050;-73
2021/04/11 01:08:37;;;;;;;8.20;2.90;;;;;;;12.29;47.52;96013.50;5040716;28;20045;-77
2021/04/11 01:11:07;;;;;;;4.72;3.20;;;;;;;12.30;47.89;96006.44;5040379;28;20053;-76
2021/04/11 01:13:38;;;;;;;5.75;3.38;;;;;;;12.31;47.33;96005.44;5040571;28;20128;-75
2021/04/11 01:16:05;;;;;;;4.95;3.45;;;;;;;12.34;47.25;96007.66;5040736;28;20049;-76
2021/04/11 01:18:32;;;;;;;7.45;3.60;;;;;;;12.33;47.32;95996.38;5040072;28;20046;-76
2021/04/11 01:21:03;;;;;;;5.35;3.13;;;;;;;12.34;47.28;95997.97;5039298;28;20488;-75
2021/04/11 01:23:43;;;;;;;4.03;3.00;;;;;;;12.34;47.31;96000.59;5039263;28;20488;-77
2021/04/11 01:26:11;;;;;;;5.03;3.03;;;;;;;12.31;47.55;95995.78;5039606;28;20431;-76
2021/04/11 01:28:41;;;;;;;5.15;3.28;;;;;;;12.28;47.66;95990.97;5039057;28;20059;-77
2021/04/11 01:31:08;;;;;;;8.27;3.78;;;;;;;12.28;47.69;95990.16;5037546;28;20050;-77
2021/04/11 01:33:39;;;;;;;5.93;3.10;;;;;;;12.26;47.61;95997.41;5038454;28;20068;-75
2021/04/11 01:36:09;;;;;;;6.30;3.38;;;;;;;12.23;47.65;95990.00;5038906;28;20065;-76
2021/04/11 01:38:37;;;;;;;5.03;3.10;;;;;;;12.20;47.79;95988.59;5038318;28;20068;-77
2021/04/11 01:41:09;;;;;;;5.88;3.42;;;;;;;12.17;47.59;95983.75;5038980;28;20499;-79
2021/04/11 01:43:38;;;;;;;6.15;3.60;;;;;;;12.13;47.80;95987.78;5038315;28;20049;-77
2021/04/11 01:46:06;;;;;;;4.85;3.42;;;;;;;12.09;47.93;95984.81;5038426;28;20045;-77
2021/04/11 01:48:33;;;;;;;6.40;3.08;;;;;;;12.07;47.83;95984.22;5038772;28;20481;-78
2021/04/11 01:51:01;;;;;;;4.97;2.65;;;;;;;12.04;47.87;95982.00;5038506;28;20137;-77
2021/04/11 01:53:30;;;;;;;8.40;3.20;;;;;;;12.02;47.92;95983.22;5038329;28;20071;-77
2021/04/11 01:55:57;;;;;;;4.55;2.90;;;;;;;11.99;47.76;95981.00;5038086;28;20064;-76
2021/04/11 01:58:26;;;;;;;4.03;2.95;;;;;;;11.99;47.78;95981.00;5037515;28;20136;-78
2021/04/11 02:01:05;;;;;;;7.60;3.30;;;;;;;11.97;47.90;95981.22;5038077;28;20045;-77
2021/04/11 02:03:32;;;;;;;4.05;2.88;;;;;;;11.97;48.02;95975.19;5037727;28;20045;-77
2021/04/11 02:06:04;;;;;;;3.75;2.53;;;;;;;11.98;48.01;95984.63;5037285;28;20049;-77
2021/04/11 02:08:32;;;;;;;5.15;3.00;;;;;;;11.98;48.03;95979.41;5037142;28;20045;-78
2021/04/11 02:11:03;;;;;;;7.40;3.42;;;;;;;11.97;48.19;95988.25;5037310;28;20045;-77
2021/04/11 02:13:34;;;;;;;4.88;2.55;;;;;;;11.97;48.08;95988.25;5036945;28;20111;-77
2021/04/11 02:16:03;;;;;;;6.15;3.25;;;;;;;11.95;48.24;95984.03;5036278;28;20601;-76
2021/04/11 02:18:31;;;;;;;5.18;2.83;;;;;;;11.94;48.43;95987.66;5036657;28;20052;-77
2021/04/11 02:20:59;;;;;;;6.28;3.17;;;;;;;11.92;48.37;95981.84;5036507;28;20056;-76
2021/04/11 02:23:27;;;;;;;5.22;3.17;;;;;;;11.90;48.46;95981.22;5035799;28;20583;-77
2021/04/11 02:25:55;;;;;;;5.13;2.72;;;;;;;11.89;48.58;95974.38;5037169;28;20049;-76
2021/04/11 02:28:24;;;;;;;5.20;2.78;;;;;;;11.86;48.78;95980.00;5036431;28;20049;-78
2021/04/11 02:30:54;;;;;;;5.13;2.72;;;;;;;11.85;48.80;95981.03;5035678;28;20518;-77
2021/04/11 02:33:24;;;;;;;4.63;2.45;;;;;;;11.84;48.94;95982.00;5035504;28;20056;-76
2021/04/11 02:35:52;;;;;;;5.15;2.88;;;;;;;11.81;48.95;95974.59;5036007;28;20059;-76
2021/04/11 02:38:21;;;;;;;5.97;3.15;;;;;;;11.80;49.22;95972.19;5035940;28;20423;-77
2021/04/11 02:40:52;;;;;;;2.88;2.47;;;;;;;11.78;49.31;95974.97;5036145;28;20053;-77
2021/04/11 02:43:19;;;;;;;4.78;2.65;;;;;;;11.75;49.29;95970.19;5035552;28;20084;-76
2021/04/11 02:45:46;;;;;;;6.28;2.90;;;;;;;11.73;49.37;95973.00;5035180;28;20559;-78
2021/04/11 02:48:14;;;;;;;5.78;2.80;;;;;;;11.73;49.66;95974.81;5035669;28;20385;-77
2021/04/11 02:50:43;;;;;;;3.67;2.70;;;;;;;11.71;49.77;95974.22;5035408;28;20503;-77
2021/04/11 02:53:13;;;;;;;4.65;2.95;;;;;;;11.68;50.02;95958.94;5035213;28;20049;-77
2021/04/11 02:55:41;;;;;;;3.10;2.47;;;;;;;11.66;50.02;95966.19;5035339;28;20049;-77
2021/04/11 02:58:10;;;;;;;5.32;2.58;;;;;;;11.63;50.07;95966.56;5035325;28;20050;-77
2021/04/11 03:00:39;;;;;;;3.42;2.72;;;;;;;11.60;50.39;95967.78;5034996;28;20059;-76
2021/04/11 03:03:06;;;;;;;5.25;2.72;;;;;;;11.58;50.47;95963.78;5035124;28;20049;-78
2021/04/11 03:05:32;;;;;;;5.78;3.42;;;;;;;11.55;50.70;95957.97;5034899;28;20046;-77
2021/04/11 03:08:03;;;;;;;6.40;3.00;;;;;;;11.52;50.94;95957.56;5035022;28;20056;-77
2021/04/11 03:10:39;;;;;;;5.50;2.90;;;;;;;11.48;51.06;95951.16;5035428;28;20064;-78
2021/04/11 03:13:07;;;;;;;6.15;3.35;;;;;;;11.45;51.09;95951.53;5037855;28;20060;-74
2021/04/11 03:15:34;;;;;;;3.75;2.88;;;;;;;11.42;51.21;95954.56;5039120;28;20049;-77
2021/04/11 03:18:01;;;;;;;6.78;3.15;;;;;;;11.40;51.39;95949.53;5039761;28;20045;-78
2021/04/11 03:20:30;;;;;;;4.30;2.95;;;;;;;11.40;51.42;95951.34;5039007;28;20088;-75
2021/04/11 03:23:04;;;;;;;6.00;3.00;;;;;;;11.38;51.54;95948.94;5038672;28;20049;-75
2021/04/11 03:25:32;;;;;;;3.15;2.45;;;;;;;11.38;51.40;95951.53;5038624;28;20056;-75
2021/04/11 03:28:05;;;;;;;4.25;2.45;;;;;;;11.40;51.79;95946.94;5039052;28;20484;-78
2021/04/11 03:30:37;;;;;;;6.40;3.13;;;;;;;11.43;51.40;95945.72;5038580;28;20053;-75
2021/04/11 03:33:08;;;;;;;2.60;2.28;;;;;;;11.41;51.45;95945.91;5038479;28;20423;-77
2021/04/11 03:35:37;;;;;;;8.27;3.35;;;;;;;11.39;51.46;95955.78;5018194;23;20061;-75
2021/04/11 03:38:07;;;;;;;4.28;2.90;;;;;;;11.37;51.75;95952.56;4992906;28;20057;-75
2021/04/11 03:40:36;;;;;;;5.32;3.00;;;;;;;11.34;51.86;95960.78;4992874;28;20134;-75
2021/04/11 03:43:06;;;;;;;7.30;4.68;;;;;;;11.31;51.84;95963.81;4992665;28;20057;-75
2021/04/11 03:45:33;;;;;;;5.43;3.83;;;;;;;11.27;52.00;95962.59;4992959;28;20050;-75
2021/04/11 03:48:08;;;;;;;6.22;3.55;;;;;;;11.23;52.10;95961.41;4992599;28;20053;-75
2021/04/11 03:50:40;;;;;;;6.68;3.75;;;;;;;11.18;52.33;95954.16;4992497;28;20440;-75
2021/04/11 03:53:14;;;;;;;5.15;3.40;;;;;;;11.16;52.42;95958.78;4992494;28;20125;-75
2021/04/11 03:55:43;;;;;;;5.63;2.80;;;;;;;11.14;52.29;95958.97;4992797;28;20416;-74
2021/04/11 03:58:13;;;;;;;3.45;2.83;;;;;;;11.13;52.29;95948.75;4992883;28;20061;-75
2021/04/11 04:00:45;;;;;;;5.57;3.30;;;;;;;11.09;52.51;95956.19;4992625;28;20056;-74
2021/04/11 04:03:19;;;;;;;4.97;2.78;;;;;;;11.07;52.68;95952.97;4992093;28;20501;-74
2021/04/11 04:05:47;;;;;;;4.57;3.15;;;;;;;11.05;52.63;95957.56;4992919;28;20058;-75
2021/04/11 04:08:14;;;;;;;3.97;2.72;;;;;;;11.05;52.51;95960.19;4992662;28;20050;-74
2021/04/11 04:10:44;;;;;;;3.50;2.80;;;;;;;11.05;52.84;95959.38;4992694;28;20057;-74
2021/04/11 04:13:34;;;;;;;2.90;1.92;;;;;;;11.04;53.15;95963.81;4992173;28;20062;-75
2021/04/11 04:16:13;;;;;;;4.68;2.90;;;;;;;11.07;53.02;95962.59;4989295;28;20408;-74
2021/04/11 04:18:52;;;;;;;5.20;2.80;;;;;;;11.09;53.10;95955.38;4992542;28;20058;-75
2021/04/11 04:21:33;;;;;;;5.53;2.55;;;;;;;11.10;52.86;95959.59;4992475;28;20050;-74
2021/04/11 04:24:14;;;;;;;5.55;3.15;;;;;;;11.10;52.82;95960.38;4991899;28;20057;-75
2021/04/11 04:26:46;;;;;;;6.35;3.40;;;;;;;11.08;52.96;95959.78;4992617;28;20312;-75
2021/04/11 04:29:25;;;;;;;5.22;3.42;;;;;;;11.06;53.38;95964.41;4992305;28;20497;-74
2021/04/11 04:32:05;;;;;;;7.93;3.83;;;;;;;11.01;53.18;95958.97;4992318;28;20534;-75
2021/04/11 04:34:36;;;;;;;6.10;2.83;;;;;;;10.99;53.46;95968.81;4991935;28;20425;-75
2021/04/11 04:37:15;;;;;;;4.70;2.75;;;;;;;10.99;53.52;95960.97;4992478;28;20423;-74
2021/04/11 04:39:51;;;;;;;4.05;3.00;;;;;;;10.99;53.71;95960.19;4994583;28;20050;-75
2021/04/11 04:42:26;;;;;;;4.65;3.22;;;;;;;10.99;53.64;95960.97;4998307;28;20054;-75
2021/04/11 04:45:00;;;;;;;4.93;2.55;;;;;;;10.98;53.73;95964.59;4992648;28;20054;-74
2021/04/11 04:47:40;;;;;;;6.90;3.33;;;;;;;10.98;53.83;95963.81;4992890;28;20050;-74
2021/04/11 04:50:15;;;;;;;5.90;2.42;;;;;;;10.98;53.95;95962.00;4992414;28;20047;-75
2021/04/11 04:52:46;;;;;;;3.35;3.05;;;;;;;10.97;53.56;95965.59;4992425;28;20604;-74
2021/04/11 04:55:20;;;;;;;5.45;2.92;;;;;;;10.96;53.66;95965.81;4992071;28;20524;-75
2021/04/11 04:57:50;;;;;;;4.72;3.42;;;;;;;10.96;53.93;95961.41;4992272;28;20046;-75
2021/04/11 05:00:23;;;;;;;6.03;3.28;;;;;;;10.96;54.14;95960.59;4992074;28;20054;-74
2021/04/11 05:02:58;;;;;;;5.18;3.38;;;;;;;10.98;54.25;95964.59;4991769;28;20086;-75
2021/04/11 05:05:26;;;;;;;4.05;3.08;;;;;;;10.98;53.94;95967.22;4992393;28;20061;-75
2021/04/11 05:07:58;;;;;;;7.53;2.80;;;;;;;11.01;53.59;95966.81;4995522;28;20053;-74
2021/04/11 05:10:32;;;;;;;5.40;3.00;;;;;;;11.03;54.15;95967.41;4995870;28;20050;-74
2021/04/11 05:13:03;;;;;;;4.82;3.17;;;;;;;11.04;54.18;95969.03;4995369;28;20051;-74
2021/04/11 05:15:36;;;;;;;4.30;2.67;;;;;;;11.04;54.24;95969.03;4995450;28;20080;-74
2021/04/11 05:18:05;;;;;;;;;;;;;;;11.05;54.18;95969.84;4995791;28;20437;-74
2021/04/11 05:20:37;;;;;;;4.40;2.90;;;;;;;11.03;54.18;95966.63;4995499;28;19921;-74
2021/04/11 05:23:13;;;;;;;7.70;3.60;;;;;;;11.04;54.95;95969.03;4995198;28;20054;-77
2021/04/11 05:25:45;;;;;;;6.68;3.50;;;;;;;11.05;54.24;95970.63;4995396;28;20057;-74
2021/04/11 05:28:19;;;;;;;5.50;3.00;;;;;;;11.07;54.63;95968.63;4995282;28;20046;-74
2021/04/11 05:30:50;;;;;;;4.30;3.13;;;;;;;11.08;54.41;95967.59;4995081;28;20057;-75
2021/04/11 05:33:22;;;;;;;6.20;3.20;;;;;;;11.07;54.40;95963.41;4995177;28;20062;-74
2021/04/11 05:35:57;;;;;;;5.10;3.47;;;;;;;11.10;54.09;95968.22;4994960;28;20146;-74
2021/04/11 05:38:32;;;;;;;4.35;2.97;;;;;;;11.12;54.03;95966.19;4995402;28;20058;-74
2021/04/11 05:41:03;;;;;;;4.78;3.03;;;;;;;11.16;54.35;95963.22;4994882;28;20057;-76
2021/04/11 05:43:36;;;;;;;3.75;3.05;;;;;;;11.20;54.15;95969.66;4995109;28;20054;-75
2021/04/11 05:46:10;;;;;;;3.75;2.25;;;;;;;11.23;53.71;95966.63;4994984;28;20054;-75
2021/04/11 05:48:44;;;;;;;3.20;2.72;;;;;;;11.24;53.65;95968.22;4995283;28;20047;-75
2021/04/11 05:51:14;;;;;;;3.33;2.42;;;;;;;11.24;53.48;95973.44;4995652;28;20053;-75
2021/04/11 05:53:45;;;;;;;3.50;2.75;;;;;;;11.24;53.51;95976.88;4994938;28;20053;-75
2021/04/11 05:56:19;;;;;;;3.78;2.42;;;;;;;11.27;53.35;95973.84;4995170;28;20050;-75
2021/04/11 05:58:50;;;;;;;4.32;2.53;;;;;;;11.32;53.64;95970.63;4994964;28;20057;-74
2021/04/11 06:01:19;;;;;;;4.28;2.47;;;;;;;11.36;53.52;95971.03;4995061;28;20061;-75
2021/04/11 06:03:52;;;;;;;5.82;3.10;;;;;;;11.38;53.50;95969.81;4994521;28;20413;-75
2021/04/11 06:06:26;;;;;;;3.53;2.53;;;;;;;11.41;53.49;95969.41;4995111;28;20050;-77
2021/04/11 06:09:02;;;;;;;3.95;2.42;;;;;;;11.44;53.33;95970.84;4995123;28;20054;-76
2021/04/11 06:11:39;;;;;;;3.55;2.20;;;;;;;11.44;52.80;95969.03;4994654;28;20050;-76
2021/04/11 06:14:13;;;;;;;2.72;2.30;;;;;;;11.46;52.58;95966.22;4994586;28;20142;-74
2021/04/11 06:16:40;;;;;;;4.28;2.50;;;;;;;11.45;52.44;95965.38;4994743;28;20051;-75
2021/04/11 06:19:08;;;;;;;3.97;2.63;;;;;;;11.45;52.27;95964.59;4994005;28;20057;-75
2021/04/11 06:21:45;;;;;;;4.10;1.88;;;;;;;11.45;52.25;95962.78;4994527;28;20505;-75
2021/04/11 06:24:22;;;;;;;4.38;2.45;;;;;;;11.46;52.36;95961.78;4996284;28;20149;-76
2021/04/11 06:27:00;;;;;;;3.70;1.95;;;;;;;11.50;52.13;95964.78;4994386;28;20050;-75
2021/04/11 06:29:32;;;;;;;4.63;2.60;;;;;;;11.50;51.94;95960.38;4994306;28;20062;-75
2021/04/11 06:32:04;;;;;;;5.07;2.40;;;;;;;11.51;51.92;95961.19;4995022;28;20061;-75
2021/04/11 06:34:36;;;;;;;3.35;1.83;;;;;;;11.53;51.93;95957.34;4996885;28;20050;-76
2021/04/11 06:37:05;;;;;;;3.38;2.00;;;;;;;11.57;51.44;95955.16;5007182;28;20056;-77
2021/04/11 06:39:35;;;;;;;4.65;1.92;;;;;;;11.63;51.32;95956.94;5008113;28;20054;-77
2021/04/11 06:42:28;;;;;;;6.85;2.60;;;;;;;11.72;51.24;95954.94;5004987;28;20050;-80
2021/04/11 06:45:10;;;;;;;;;;;;;;;11.81;51.28;95958.91;4981719;28;20054;-76
2021/04/11 06:47:58;;;;;;;4.80;2.60;;;;;;;11.89;50.62;95956.09;4994095;28;20377;-76
2021/04/11 06:50:43;;;;;;;4.28;2.15;;;;;;;11.98;50.83;95953.25;4994452;28;20165;-76
2021/04/11 06:53:27;;;;;;;3.72;2.30;;;;;;;12.07;50.05;95946.78;4993946;28;20050;-76
2021/04/11 06:56:16;;;;;;;3.22;2.35;;;;;;;12.16;50.45;95946.38;4994239;28;20046;-77
2021/04/11 06:58:49;;;;;;;2.95;2.28;;;;;;;12.29;50.11;95939.47;4994383;28;20493;-76
2021/04/11 07:02:01;;;;;;;5.57;2.28;;;;;;;12.42;50.11;95939.41;4994133;28;20050;-77
2021/04/11 07:04:58;;;;;;;2.70;1.83;;;;;;;12.54;49.98;95947.38;4993817;28;20452;-75
2021/04/11 07:08:15;;;;;;;2.92;1.90;;;;;;;12.67;49.71;95941.28;4974076;28;20046;-76
2021/04/11 07:11:12;;;;;;;3.50;1.98;;;;;;;12.84;50.14;95937.16;4993431;28;20057;-75
2021/04/11 07:14:18;;;;;;;2.63;2.17;;;;;;;13.00;49.53;95930.56;4992214;28;20050;-76
2021/04/11 07:17:15;;;;;;;2.42;1.90;;;;;;;13.17;49.94;95936.09;4954945;28;20053;-76
2021/04/11 07:20:02;;;;;;;2.95;2.05;;;;;;;13.33;48.07;95934.78;5009069;28;20054;-77
2021/04/11 07:23:07;;;;;;;2.75;1.95;;;;;;;13.50;48.52;95941.06;5012297;28;20082;-78
2021/04/11 07:25:43;;;;;;;3.60;2.25;;;;;;;13.63;47.63;95936.72;4995062;28;20066;-77
2021/04/11 07:28:28;;;;;;;3.03;1.70;;;;;;;13.74;47.22;95931.56;5003774;28;20107;-79
2021/04/11 07:31:05;;;;;;;2.60;1.65;;;;;;;13.86;46.89;95942.09;4994008;28;20508;-79
2021/04/11 07:34:13;;;;;;;2.55;1.30;;;;;;;13.98;47.00;95942.19;4994212;28;20097;-78
2021/04/11 07:36:56;;;;;;;2.58;1.58;;;;;;;14.08;46.38;95937.25;4993503;28;20511;-76
2021/04/11 07:39:44;;;;;;;2.38;1.60;;;;;;;14.19;46.18;95933.88;4992963;28;20085;-77
2021/04/11 07:42:36;;;;;;;3.17;1.58;;;;;;;14.29;45.35;95941.22;4993287;28;20057;-76
2021/04/11 07:45:27;;;;;;;3.45;1.60;;;;;;;14.42;46.38;95942.88;4997286;28;20053;-78
2021/04/11 07:48:26;;;;;;;7.13;1.98;;;;;;;14.62;46.22;95937.38;4991251;28;20046;-80
2021/04/11 07:51:13;;;;;;;2.38;1.25;;;;;;;14.78;45.39;95949.91;4999511;28;20054;-80
2021/04/11 07:54:00;;;;;;;2.92;1.92;;;;;;;14.91;45.12;95943.66;4998048;28;20050;-74
2021/04/11 07:56:38;;;;;;;3.05;1.80;;;;;;;15.04;45.51;95945.25;4992817;28;20429;-75
2021/04/11 07:59:20;;;;;;;3.47;1.42;;;;;;;15.18;44.64;95951.91;4989431;28;20532;-76
2021/04/11 08:02:13;;;;;;;1.80;1.30;;;;;;;15.29;44.55;95947.69;4991488;28;20060;-76
2021/04/11 08:05:18;;;;;;;3.45;1.40;;;;;;;15.39;44.62;95947.94;4992468;28;20674;-75
2021/04/11 08:07:58;;;;;;;1.23;0.65;;;;;;;15.48;43.95;95955.47;4970374;28;20057;-75
2021/04/11 08:10:43;;;;;;;1.73;1.02;;;;;;;15.55;43.94;95962.22;4998261;28;20043;-76
2021/04/11 08:13:30;;;;;;;3.08;0.82;;;;;;;15.58;43.11;95959.13;5006200;28;20054;-75
2021/04/11 08:16:12;;;;;;;0.95;0.60;;;;;;;15.61;43.31;95958.69;5001593;28;20501;-74
2021/04/11 08:19:20;;;;;;;2.42;0.90;;;;;;;15.65;43.49;95959.00;4993403;28;20046;-75
2021/04/11 08:21:53;;;;;;;23.27;14.93;;;;;;;15.77;43.85;95954.59;4946721;28;20054;-75
2021/04/11 08:24:46;;;;;;;5.55;4.05;;;;;;;15.93;43.50;95958.34;4992076;28;20054;-74
2021/04/11 08:27:43;;;;;;;4.03;2.00;;;;;;;16.06;43.14;95954.66;4992438;28;20069;-74
2021/04/11 08:30:45;;;;;;;4.38;1.10;;;;;;;16.21;44.00;95962.06;4993688;28;20050;-75
2021/04/11 08:33:39;;;;;;;4.88;0.90;;;;;;;16.31;43.80;95964.91;4992704;28;20064;-80
2021/04/11 08:36:41;;;;;;;4.15;1.13;;;;;;;16.39;44.15;95959.25;5000362;28;20078;-79
2021/04/11 08:39:31;;;;;;;1.40;0.60;;;;;;;16.46;43.48;95957.31;4977517;28;20489;-75
2021/04/11 08:42:40;;;;;;;2.60;0.68;;;;;;;16.53;44.53;95961.63;4997915;28;20093;-80
2021/04/11 08:45:35;;;;;;;5.78;3.85;;;;;;;16.53;42.91;95965.06;4996186;28;20511;-78
2021/04/11 08:48:18;;;;;;;4.00;1.10;;;;;;;16.49;43.57;95961.31;4996047;28;20054;-75
2021/04/11 08:50:50;;;;;;;1.58;1.10;;;;;;;16.43;42.32;95963.03;4997031;28;20057;-77
2021/04/11 08:53:41;;;;;;;1.63;1.00;;;;;;;16.39;45.16;95967.16;4996509;28;20054;-79
2021/04/11 08:56:17;;;;;;;1.48;0.90;;;;;;;16.42;43.39;95971.16;4997797;28;20050;-77
2021/04/11 08:58:53;;;;;;;1.67;0.88;;;;;;;16.43;42.76;95972.75;4996954;28;20054;-76
2021/04/11 09:01:35;;;;;;;1.02;0.60;;;;;;;16.44;42.69;95969.91;4997160;28;20398;-75
2021/04/11 09:04:12;;;;;;;2.70;0.90;;;;;;;16.44;42.36;95975.16;4995503;28;20629;-76
2021/04/11 09:06:51;;;;;;;1.10;0.50;;;;;;;16.46;43.18;95967.00;4995766;28;20050;-75
2021/04/11 09:09:35;;;;;;;1.80;0.75;;;;;;;16.51;43.01;95964.50;4976449;28;20060;-75
2021/04/11 09:12:16;;;;;;;0.50;0.50;;;;;;;16.55;41.87;95970.06;4976591;28;20109;-75
2021/04/11 09:14:56;;;;;;;6.07;0.82;;;;;;;16.59;42.21;95972.00;4976177;28;20055;-75
2021/04/11 09:17:46;;;;;;;2.80;0.80;;;;;;;16.68;46.95;95975.06;4976678;28;20430;-75
2021/04/11 09:20:18;;;;;;;5.47;0.93;;;;;;;16.78;45.06;95975.25;4976548;28;20072;-75
2021/04/11 09:23:02;;;;;;;1.50;0.70;;;;;;;16.82;43.53;95971.16;4976682;28;20059;-75
2021/04/11 09:25:31;;;;;;;1.52;0.63;;;;;;;16.85;42.74;95969.88;4976108;28;20065;-75
2021/04/11 09:28:33;;;;;;;1.20;0.65;;;;;;;16.87;44.15;95973.84;4976113;28;20046;-75
2021/04/11 09:31:15;;;;;;;8.13;4.90;;;;;;;16.91;42.73;95968.13;4956801;28;20047;-75
2021/04/11 09:33:54;;;;;;;1.67;1.52;;;;;;;16.96;41.89;95970.84;4976087;28;20062;-75
2021/04/11 09:36:29;;;;;;;1.27;0.88;;;;;;;16.99;44.48;95970.38;5009430;23;20050;-76
2021/04/11 09:39:20;;;;;;;3.03;0.70;;;;;;;17.03;41.16;95968.84;5003134;28;20065;-79
2021/04/11 09:42:05;;;;;;;2.38;0.80;;;;;;;17.10;42.97;95966.88;4999278;28;20421;-77
2021/04/11 09:45:14;;;;;;;1.40;0.60;;;;;;;17.17;41.84;95967.53;5001961;28;20133;-78
2021/04/11 09:47:55;;;;;;;1.65;0.95;;;;;;;17.24;41.87;95967.38;5002160;28;20108;-78
2021/04/11 09:50:33;;;;;;;2.30;0.80;;;;;;;17.25;41.76;95964.50;5003782;28;20051;-79
2021/04/11 09:53:34;;;;;;;5.03;0.75;;;;;;;17.26;40.94;95965.28;5000766;28;20050;-78
2021/04/11 09:56:26;;;;;;;1.42;0.77;;;;;;;17.29;42.77;95970.91;5002083;28;20505;-78
2021/04/11 09:59:33;;;;;;;2.03;0.50;;;;;;;17.35;41.36;95968.31;5003572;28;20046;-77
2021/04/11 10:02:09;;;;;;;1.70;0.70;;;;;;;17.41;40.84;95960.25;5002282;28;20149;-78
2021/04/11 10:05:00;;;;;;;1.75;0.60;;;;;;;17.48;40.48;95958.25;5002516;28;20050;-78
2021/04/11 10:07:42;;;;;;;0.60;0.60;;;;;;;17.54;40.42;95961.78;5002171;28;20046;-78
2021/04/11 10:10:18;;;;;;;3.90;1.00;;;;;;;17.65;45.00;95952.97;5000895;28;20046;-79
2021/04/11 10:12:58;;;;;;;2.20;0.75;;;;;;;17.83;41.25;95953.75;5001681;28;20056;-79
2021/04/11 10:15:30;;;;;;;2.67;0.70;;;;;;;18.01;39.60;95945.53;5001308;28;20050;-77
2021/04/11 10:18:37;;;;;;;2.42;0.80;;;;;;;18.17;39.59;95951.00;5004509;28;20552;-79
2021/04/11 10:21:18;;;;;;;1.15;0.60;;;;;;;18.28;39.68;95942.19;4999970;28;20066;-77
2021/04/11 10:24:00;;;;;;;2.45;0.60;;;;;;;18.38;39.45;95941.50;4998894;28;20322;-77
2021/04/11 10:26:33;;;;;;;1.90;0.60;;;;;;;18.42;38.29;95937.31;4998781;28;20065;-77
2021/04/11 10:29:04;;;;;;;0.98;0.80;;;;;;;18.44;38.58;95930.75;4997867;28;20043;-76
2021/04/11 10:31:37;;;;;;;1.58;0.88;;;;;;;18.50;37.47;95926.34;4998450;28;20070;-78
2021/04/11 10:34:12;;;;;;;49.55;22.83;;;;;;;18.53;39.38;95931.91;4998202;28;20047;-77
2021/04/11 10:36:47;;;;;;;54.45;26.77;;;;;;;18.62;41.92;95929.59;4998308;28;20050;-80
2021/04/11 10:39:23;;;;;;;73.80;38.05;;;;;;;18.66;39.44;95920.16;4999357;28;20058;-77
2021/04/11 10:42:19;;;;;;;662.53;244.80;;;;;;;18.69;39.16;95924.13;5000384;28;20042;-77
2021/04/11 10:45:01;;;;;;;206.52;73.88;;;;;;;18.81;40.10;95931.94;4964239;28;20053;-78
2021/04/11 10:47:50;;;;;;;25.33;10.32;;;;;;;18.85;37.48;95919.84;4999088;28;20060;-78
2021/04/11 10:50:22;;;;;;;13.48;3.78;;;;;;;18.91;38.77;95919.63;5008088;28;20068;-82
2021/04/11 10:53:10;;;;;;;12.70;5.50;;;;;;;18.98;39.31;95921.25;5010602;28;20053;-83
2021/04/11 10:55:48;;;;;;;6.43;3.45;;;;;;;19.05;38.57;95908.63;5008925;28;20050;-83
2021/04/11 10:58:46;;;;;;;10.00;3.53;;;;;;;19.19;38.36;95906.34;5011257;28;20115;-83
2021/04/11 11:01:29;;;;;;;9.13;3.90;;;;;;;19.31;37.98;95905.13;4983179;28;20081;-84
2021/04/11 11:04:34;;;;;;;2.20;1.10;;;;;;;19.44;36.22;95909.19;5009253;28;20064;-86
2021/04/11 11:07:22;;;;;;;1.85;1.30;;;;;;;19.54;36.44;95909.22;5014127;28;20110;-87
2021/04/11 11:10:07;;;;;;;2.95;1.42;;;;;;;19.69;35.83;95900.63;5008705;28;20058;-85
2021/04/11 11:12:48;;;;;;;1.83;1.27;;;;;;;19.83;34.74;95906.25;5008855;28;20110;-84
2021/04/11 11:15:26;;;;;;;2.55;1.00;;;;;;;19.89;34.29;95909.72;5010043;28;20073;-83
2021/04/11 11:18:13;;;;;;;3.25;1.45;;;;;;;19.92;33.87;95901.28;5009278;28;20133;-87
2021/04/11 11:20:49;;;;;;;4.57;2.97;;;;;;;19.93;35.13;95897.56;5012168;28;20077;-87
2021/04/11 11:23:47;;;;;;;3.58;1.30;;;;;;;19.96;34.23;95897.03;5011878;28;20109;-84
2021/04/11 11:26:52;;;;;;;2.55;0.90;;;;;;;19.99;36.50;95893.88;5008007;28;20057;-86
2021/04/11 11:29:49;;;;;;;0.98;0.88;;;;;;;20.14;34.72;95888.66;4968887;28;20532;-83
2021/04/11 11:32:22;;;;;;;2.15;1.30;;;;;;;20.27;34.01;95887.38;5007226;28;20068;-80
2021/04/11 11:34:56;;;;;;;4.45;1.35;;;;;;;20.33;35.64;95881.03;5006468;28;20062;-83
2021/04/11 11:37:41;;;;;;;2.50;1.00;;;;;;;20.38;34.21;95877.59;5004627;28;20149;-83
2021/04/11 11:40:15;;;;;;;5.53;1.10;;;;;;;20.47;33.46;95883.97;5004746;28;20047;-77
2021/04/11 11:42:58;;;;;;;2.20;0.80;;;;;;;20.55;32.40;95883.47;5002322;28;20073;-78
2021/04/11 11:45:33;;;;;;;1.65;1.50;;;;;;;20.61;32.22;95880.84;5002942;28;20046;-79
2021/04/11 11:48:17;;;;;;;1.52;1.23;;;;;;;20.73;32.92;95876.88;4999945;28;20061;-79
2021/04/11 11:50:54;;;;;;;2.00;0.93;;;;;;;20.86;32.09;95874.75;5001877;28;20106;-81
2021/04/11 11:53:26;;;;;;;2.25;0.98;;;;;;;20.99;35.46;95874.25;4981210;28;20058;-80
2021/04/11 11:56:09;;;;;;;1.80;0.98;;;;;;;21.11;31.58;95881.94;4987068;28;20042;-78
2021/04/11 11:58:43;;;;;;;4.32;1.10;;;;;;;21.12;34.17;95878.19;5000739;28;20046;-78
2021/04/11 12:01:20;;;;;;;4.55;1.48;;;;;;;21.18;30.92;95875.28;5001007;28;20079;-78
2021/04/11 12:03:47;;;;;;;2.65;1.20;;;;;;;21.26;33.07;95868.66;5003233;28;20565;-79
2021/04/11 12:06:19;;;;;;;1.63;1.27;;;;;;;21.37;30.56;95874.75;5001704;28;20054;-78
2021/04/11 12:08:56;;;;;;;1.75;0.90;;;;;;;21.44;30.65;95869.97;4998699;28;20513;-78
2021/04/11 12:11:37;;;;;;;3.75;1.10;;;;;;;21.52;30.63;95869.44;4999289;28;20568;-77
2021/04/11 12:14:10;;;;;;;8.40;1.10;;;;;;;21.58;30.23;95862.22;5000361;28;20052;-76
2021/04/11 12:16:42;;;;;;;1.88;0.98;;;;;;;21.59;31.46;95866.50;4999316;28;20515;-78
2021/04/11 12:19:16;;;;;;;1.35;0.80;;;;;;;21.59;29.15;95861.19;4999791;28;20584;-77
2021/04/11 12:21:49;;;;;;;1.02;0.68;;;;;;;21.42;29.56;95864.13;4998526;28;20054;-76
2021/04/11 12:24:21;;;;;;;0.90;0.82;;;;;;;21.28;30.64;95866.53;4997167;28;20141;-77